createdAt,value
2022-10-21T00:01:01.265Z,14.90
2022-10-21T00:03:29.377Z,14.90
2022-10-21T00:05:58.667Z,14.90
2022-10-21T00:08:26.973Z,14.90
2022-10-21T00:10:56.711Z,14.90
2022-10-21T00:13:25.349Z,15.00
2022-10-21T00:16:00.574Z,15.00
2022-10-21T00:18:29.574Z,15.00
2022-10-21T00:20:59.176Z,15.00
2022-10-21T00:23:27.488Z,15.00
2022-10-21T00:25:58.134Z,15.00
2022-10-21T00:28:26.403Z,15.10
2022-10-21T00:30:54.878Z,15.10
2022-10-21T00:33:23.311Z,15.10
2022-10-21T00:35:57.538Z,15.10
2022-10-21T00:38:26.628Z,15.00
2022-10-21T00:40:54.547Z,15.10
2022-10-21T00:43:22.876Z,15.10
2022-10-21T00:45:53.608Z,15.10
2022-10-21T00:48:28.922Z,15.20
2022-10-21T00:51:00.498Z,15.30
2022-10-21T00:53:31.204Z,15.30
2022-10-21T00:56:03.065Z,15.40
2022-10-21T00:58:33.265Z,15.40
2022-10-21T01:01:02.633Z,15.40
2022-10-21T01:03:32.619Z,15.40
2022-10-21T01:06:04.164Z,15.40
2022-10-21T01:08:33.497Z,15.40
2022-10-21T01:11:03.110Z,15.40
2022-10-21T01:13:41.570Z,15.40
2022-10-21T01:16:18.063Z,15.40
2022-10-21T01:18:50.973Z,15.40
2022-10-21T01:21:32.035Z,15.40
2022-10-21T01:24:24.648Z,15.40
2022-10-21T01:27:20.846Z,15.40
2022-10-21T01:30:09.330Z,15.40
2022-10-21T01:32:58.280Z,15.30
2022-10-21T01:35:29.828Z,15.30
2022-10-21T01:38:04.932Z,15.30
2022-10-21T01:40:38.444Z,15.30
2022-10-21T01:43:14.409Z,15.30
2022-10-21T01:45:48.395Z,15.30
2022-10-21T01:48:20.395Z,15.30
2022-10-21T01:50:52.689Z,15.30
2022-10-21T01:53:22.762Z,15.30
2022-10-21T01:55:51.470Z,15.30
2022-10-21T01:58:22.985Z,15.20
2022-10-21T02:00:53.231Z,15.20
2022-10-21T02:03:26.049Z,15.20
2022-10-21T02:05:54.043Z,15.20
2022-10-21T02:08:22.165Z,15.20
2022-10-21T02:10:53.561Z,15.20
2022-10-21T02:13:31.938Z,15.20
2022-10-21T02:16:03.358Z,15.20
2022-10-21T02:18:32.599Z,15.10
2022-10-21T02:21:04.159Z,15.10
2022-10-21T02:23:39.253Z,15.10
2022-10-21T02:26:07.529Z,15.10
2022-10-21T02:28:37.007Z,15.10
2022-10-21T02:31:17.838Z,15.10
2022-10-21T02:33:57.228Z,15.00
2022-10-21T02:36:33.707Z,15.00
2022-10-21T02:39:07.915Z,15.00
2022-10-21T02:41:36.096Z,15.00
2022-10-21T02:44:05.266Z,14.90
2022-10-21T02:46:37.964Z,14.80
2022-10-21T02:49:07.410Z,14.90
2022-10-21T02:51:35.922Z,14.80
2022-10-21T02:54:03.904Z,14.80
2022-10-21T02:56:31.822Z,14.80
2022-10-21T02:58:59.739Z,14.80
2022-10-21T03:01:27.807Z,14.80
2022-10-21T03:03:55.927Z,14.80
2022-10-21T03:06:25.370Z,14.80
2022-10-21T03:08:53.297Z,14.70
2022-10-21T03:11:21.278Z,14.70
2022-10-21T03:13:49.109Z,14.70
2022-10-21T03:18:50.161Z,14.70
2022-10-21T03:21:18.075Z,14.70
2022-10-21T03:23:47.319Z,14.70
2022-10-21T03:26:15.431Z,14.60
2022-10-21T03:28:43.286Z,14.60
2022-10-21T03:31:11.111Z,14.60
2022-10-21T03:33:39.023Z,14.60
2022-10-21T03:36:08.139Z,14.60
2022-10-21T03:38:36.091Z,14.60
2022-10-21T03:41:05.574Z,14.60
2022-10-21T03:43:33.434Z,14.60
2022-10-21T03:46:01.367Z,14.60
2022-10-21T03:48:29.637Z,14.60
2022-10-21T03:50:57.580Z,14.60
2022-10-21T03:53:42.322Z,14.60
2022-10-21T03:56:12.411Z,14.50
2022-10-21T03:58:40.591Z,14.50
2022-10-21T04:01:11.444Z,14.50
2022-10-21T04:03:39.389Z,14.50
2022-10-21T04:06:07.321Z,14.50
2022-10-21T04:08:35.229Z,14.50
2022-10-21T04:11:03.141Z,14.40
2022-10-21T04:13:32.429Z,14.40
2022-10-21T04:16:01.306Z,14.40
2022-10-21T04:18:29.396Z,14.40
2022-10-21T04:20:57.297Z,14.40
2022-10-21T04:23:25.208Z,14.40
2022-10-21T04:25:53.298Z,14.40
2022-10-21T04:28:21.164Z,14.40
2022-10-21T04:30:51.928Z,14.40
2022-10-21T04:33:20.181Z,14.40
2022-10-21T04:35:48.032Z,14.40
2022-10-21T04:38:16.082Z,14.30
2022-10-21T04:40:44.000Z,14.30
2022-10-21T04:43:11.872Z,14.30
2022-10-21T04:45:40.615Z,14.30
2022-10-21T04:48:09.860Z,14.30
2022-10-21T04:50:37.798Z,14.30
2022-10-21T04:53:05.683Z,14.30
2022-10-21T04:55:33.588Z,14.30
2022-10-21T04:58:01.484Z,14.30
2022-10-21T05:00:29.342Z,14.30
2022-10-21T05:02:57.202Z,14.20
2022-10-21T05:05:26.749Z,14.20
2022-10-21T05:07:54.641Z,14.20
2022-10-21T05:10:24.091Z,14.20
2022-10-21T05:12:51.932Z,14.20
2022-10-21T05:15:19.993Z,14.20
2022-10-21T05:17:48.060Z,14.20
2022-10-21T05:20:16.005Z,14.20
2022-10-21T05:22:45.296Z,14.20
2022-10-21T05:25:13.588Z,14.20
2022-10-21T05:27:41.620Z,14.20
2022-10-21T05:30:10.790Z,14.10
2022-10-21T05:32:39.606Z,14.10
2022-10-21T05:35:08.351Z,14.10
2022-10-21T05:37:36.214Z,14.10
2022-10-21T05:40:06.542Z,14.10
2022-10-21T05:42:34.643Z,14.10
2022-10-21T05:45:02.563Z,14.10
2022-10-21T05:47:34.174Z,14.10
2022-10-21T05:50:05.040Z,14.10
2022-10-21T05:52:33.378Z,14.10
2022-10-21T05:55:01.213Z,14.00
2022-10-21T05:57:33.059Z,14.00
2022-10-21T06:00:00.932Z,14.00
2022-10-21T06:02:28.810Z,14.00
2022-10-21T06:04:56.881Z,14.00
2022-10-21T06:07:24.818Z,14.00
2022-10-21T06:09:54.780Z,14.00
2022-10-21T06:12:23.817Z,14.00
2022-10-21T06:14:53.039Z,14.00
2022-10-21T06:17:21.316Z,14.00
2022-10-21T06:19:51.003Z,14.00
2022-10-21T06:22:19.231Z,14.00
2022-10-21T06:24:47.842Z,14.00
2022-10-21T06:27:15.729Z,14.00
2022-10-21T06:29:43.736Z,14.00
2022-10-21T06:32:13.354Z,14.00
2022-10-21T06:34:41.238Z,14.00
2022-10-21T06:37:09.198Z,14.00
2022-10-21T06:39:37.064Z,14.00
2022-10-21T06:42:05.025Z,14.00
2022-10-21T06:44:32.962Z,14.00
2022-10-21T06:47:00.959Z,14.00
2022-10-21T06:49:30.157Z,14.00
2022-10-21T06:51:58.026Z,14.00
2022-10-21T06:54:25.989Z,14.00
2022-10-21T06:56:54.006Z,14.00
2022-10-21T06:59:22.030Z,14.00
2022-10-21T07:01:59.754Z,14.10
2022-10-21T07:04:30.342Z,14.10
2022-10-21T07:06:58.444Z,14.10
2022-10-21T07:09:26.358Z,14.10
2022-10-21T07:11:56.721Z,14.10
2022-10-21T07:14:25.303Z,14.10
2022-10-21T07:16:53.958Z,14.20
2022-10-21T07:19:21.903Z,14.20
2022-10-21T07:21:51.148Z,14.20
2022-10-21T07:24:22.593Z,14.20
2022-10-21T07:26:51.367Z,14.30
2022-10-21T07:29:19.851Z,14.30
2022-10-21T07:31:47.750Z,14.30
2022-10-21T07:34:15.803Z,14.30
2022-10-21T07:36:47.946Z,14.40
2022-10-21T07:39:19.027Z,14.40
2022-10-21T07:41:49.037Z,14.40
2022-10-21T07:44:17.349Z,14.50
2022-10-21T07:46:46.727Z,14.50
2022-10-21T07:49:15.367Z,14.50
2022-10-21T07:51:45.221Z,14.60
2022-10-21T07:54:14.307Z,14.60
2022-10-21T07:56:45.871Z,14.60
2022-10-21T07:59:14.572Z,14.60
2022-10-21T08:01:45.779Z,14.70
2022-10-21T08:04:15.428Z,14.70
2022-10-21T08:06:43.829Z,14.70
2022-10-21T08:09:12.026Z,14.80
2022-10-21T08:11:40.000Z,14.80
2022-10-21T08:14:10.679Z,14.90
2022-10-21T08:16:39.165Z,14.90
2022-10-21T08:19:07.886Z,14.90
2022-10-21T08:21:37.410Z,14.90
2022-10-21T08:24:08.388Z,15.00
2022-10-21T08:26:36.316Z,15.00
2022-10-21T08:29:05.207Z,15.10
2022-10-21T08:31:34.473Z,15.10
2022-10-21T08:34:02.375Z,15.10
2022-10-21T08:36:30.367Z,15.20
2022-10-21T08:38:59.495Z,15.20
2022-10-21T08:41:51.390Z,15.20
2022-10-21T08:44:42.566Z,15.30
2022-10-21T08:47:19.918Z,15.30
2022-10-21T08:49:56.225Z,15.30
2022-10-21T08:52:30.817Z,15.30
2022-10-21T08:55:01.917Z,15.30
2022-10-21T08:57:30.100Z,15.40
2022-10-21T08:59:58.115Z,15.40
2022-10-21T09:02:36.026Z,15.40
2022-10-21T09:05:29.585Z,15.40
2022-10-21T09:08:12.809Z,15.40
2022-10-21T09:10:55.713Z,15.40
2022-10-21T09:13:35.069Z,15.50
2022-10-21T09:16:09.296Z,15.50
2022-10-21T09:18:44.967Z,15.50
2022-10-21T09:21:21.844Z,15.50
2022-10-21T09:23:58.176Z,15.50
2022-10-21T09:26:40.246Z,15.50
2022-10-21T09:29:26.379Z,15.60
2022-10-21T09:32:02.112Z,15.60
2022-10-21T09:34:41.952Z,15.60
2022-10-21T09:37:17.341Z,15.70
2022-10-21T09:39:51.236Z,15.80
2022-10-21T09:42:35.743Z,15.80
2022-10-21T09:45:16.457Z,15.80
2022-10-21T09:47:45.107Z,15.80
2022-10-21T09:50:18.307Z,15.90
2022-10-21T09:52:50.628Z,15.90
2022-10-21T09:55:18.570Z,15.90
2022-10-21T09:57:52.809Z,16.00
2022-10-21T10:00:20.694Z,16.00
2022-10-21T10:02:50.031Z,16.00
2022-10-21T10:05:41.356Z,16.00
2022-10-21T10:08:23.234Z,16.10
2022-10-21T10:10:51.197Z,16.10
2022-10-21T10:13:20.617Z,16.10
2022-10-21T10:15:48.594Z,16.20
2022-10-21T10:18:26.481Z,16.20
2022-10-21T10:21:10.553Z,16.30
2022-10-21T10:23:45.257Z,16.30
2022-10-21T10:26:19.879Z,16.40
2022-10-21T10:28:57.528Z,16.40
2022-10-21T10:31:31.940Z,16.50
2022-10-21T10:34:03.615Z,16.50
2022-10-21T10:36:37.028Z,16.50
2022-10-21T10:39:08.713Z,16.60
2022-10-21T10:41:39.730Z,16.60
2022-10-21T10:44:19.439Z,16.70
2022-10-21T10:46:54.500Z,16.70
2022-10-21T10:49:23.524Z,16.80
2022-10-21T10:52:15.156Z,16.80
2022-10-21T10:54:44.184Z,16.90
2022-10-21T10:57:16.199Z,16.90
2022-10-21T10:59:47.520Z,17.00
2022-10-21T11:02:35.069Z,17.10
2022-10-21T11:05:20.516Z,17.20
2022-10-21T11:07:52.732Z,17.20
2022-10-21T11:10:35.964Z,17.20
2022-10-21T11:13:06.209Z,17.20
2022-10-21T11:15:56.633Z,17.30
2022-10-21T11:18:33.638Z,17.30
2022-10-21T11:21:10.263Z,17.40
2022-10-21T11:24:10.098Z,17.40
2022-10-21T11:26:47.319Z,17.50
2022-10-21T11:29:29.193Z,17.50
2022-10-21T11:32:11.537Z,17.60
2022-10-21T11:34:49.120Z,17.70
2022-10-21T11:37:28.658Z,17.70
2022-10-21T11:40:04.371Z,17.80
2022-10-21T11:42:40.729Z,17.80
2022-10-21T11:45:33.596Z,17.90
2022-10-21T11:48:09.640Z,18.00
2022-10-21T11:50:46.607Z,18.00
2022-10-21T11:53:31.818Z,18.00
2022-10-21T11:56:10.376Z,18.10
2022-10-21T11:58:47.169Z,18.10
2022-10-21T12:01:30.057Z,18.10
2022-10-21T12:04:24.472Z,18.10
2022-10-21T12:07:07.728Z,18.20
2022-10-21T12:09:42.993Z,18.20
2022-10-21T12:12:15.175Z,18.20
2022-10-21T12:14:47.789Z,18.20
2022-10-21T12:17:19.666Z,18.30
2022-10-21T12:19:54.781Z,18.30
2022-10-21T12:22:23.739Z,18.30
2022-10-21T12:24:57.518Z,18.40
2022-10-21T12:27:33.537Z,18.40
2022-10-21T12:30:08.595Z,18.40
2022-10-21T12:32:44.557Z,18.40
2022-10-21T12:35:16.589Z,18.40
2022-10-21T12:37:47.184Z,18.50
2022-10-21T12:40:18.093Z,18.50
2022-10-21T12:42:57.871Z,18.50
2022-10-21T12:45:31.237Z,18.50
2022-10-21T12:48:02.669Z,18.50
2022-10-21T12:50:33.191Z,18.50
2022-10-21T12:53:18.032Z,18.50
2022-10-21T12:55:52.198Z,18.60
2022-10-21T12:58:31.287Z,18.50
2022-10-21T13:01:00.602Z,18.60
2022-10-21T13:03:52.171Z,18.60
2022-10-21T13:06:55.044Z,18.70
2022-10-21T13:09:38.217Z,18.70
2022-10-21T13:12:29.802Z,18.70
2022-10-21T13:15:00.531Z,18.80
2022-10-21T13:17:34.706Z,18.80
2022-10-21T13:20:20.982Z,18.90
2022-10-21T13:23:01.764Z,18.80
2022-10-21T13:25:34.722Z,18.80
2022-10-21T13:28:06.386Z,18.90
2022-10-21T13:30:37.449Z,18.90
2022-10-21T13:33:07.353Z,18.90
2022-10-21T13:35:37.196Z,19.00
2022-10-21T13:38:19.251Z,19.10
2022-10-21T13:40:50.561Z,19.10
2022-10-21T13:43:28.973Z,19.20
2022-10-21T13:46:06.828Z,19.30
2022-10-21T13:48:40.381Z,19.40
2022-10-21T13:51:15.996Z,19.40
2022-10-21T13:53:45.883Z,19.50
2022-10-21T13:56:21.749Z,19.50
2022-10-21T13:58:50.723Z,19.60
2022-10-21T14:01:22.762Z,19.60
2022-10-21T14:03:51.096Z,19.60
2022-10-21T14:06:26.219Z,19.70
2022-10-21T14:08:56.304Z,19.70
2022-10-21T14:11:28.598Z,19.80
2022-10-21T14:14:00.059Z,19.80
2022-10-21T14:16:33.746Z,19.80
2022-10-21T14:19:05.747Z,19.80
2022-10-21T14:21:38.609Z,19.80
2022-10-21T14:24:07.520Z,19.80
2022-10-21T14:26:35.751Z,19.70
2022-10-21T14:29:06.149Z,19.70
2022-10-21T14:31:35.431Z,19.70
2022-10-21T14:34:07.283Z,19.70
2022-10-21T14:36:35.194Z,19.70
2022-10-21T14:39:06.628Z,19.80
2022-10-21T14:41:37.924Z,19.70
2022-10-21T14:44:09.469Z,19.70
2022-10-21T14:46:49.115Z,19.70
2022-10-21T14:49:24.283Z,19.70
2022-10-21T14:51:57.455Z,19.70
2022-10-21T14:54:31.859Z,19.60
2022-10-21T14:57:01.329Z,19.60
2022-10-21T14:59:35.229Z,19.60
2022-10-21T15:02:06.001Z,19.60
2022-10-21T15:04:43.913Z,19.50
2022-10-21T15:07:18.941Z,19.50
2022-10-21T15:10:01.390Z,19.40
2022-10-21T15:12:34.088Z,19.40
2022-10-21T15:15:03.698Z,19.40
2022-10-21T15:17:33.132Z,19.40
2022-10-21T15:20:03.135Z,19.30
2022-10-21T15:22:34.532Z,19.30
2022-10-21T15:25:07.720Z,19.30
2022-10-21T15:27:42.615Z,19.30
2022-10-21T15:30:17.216Z,19.20
2022-10-21T15:32:46.671Z,19.20
2022-10-21T15:35:15.551Z,19.10
2022-10-21T15:37:43.533Z,19.00
2022-10-21T15:40:12.204Z,19.00
2022-10-21T15:42:40.149Z,19.00
2022-10-21T15:45:15.268Z,19.00
2022-10-21T15:47:43.592Z,19.00
2022-10-21T15:50:16.521Z,19.00
2022-10-21T15:52:44.769Z,19.00
2022-10-21T15:55:13.631Z,19.00
2022-10-21T15:57:42.775Z,18.90
2022-10-21T16:00:18.688Z,18.90
2022-10-21T16:02:47.110Z,18.90
2022-10-21T16:05:16.982Z,18.80
2022-10-21T16:07:45.317Z,18.70
2022-10-21T16:10:19.286Z,18.70
2022-10-21T16:12:47.767Z,18.60
2022-10-21T16:15:16.143Z,18.60
2022-10-21T16:17:46.038Z,18.50
2022-10-21T16:20:18.585Z,18.40
2022-10-21T16:22:46.743Z,18.40
2022-10-21T16:25:15.303Z,18.30
2022-10-21T16:27:55.248Z,18.30
2022-10-21T16:30:26.395Z,18.20
2022-10-21T16:32:54.374Z,18.20
2022-10-21T16:35:23.735Z,18.10
2022-10-21T16:37:52.011Z,18.00
2022-10-21T16:40:22.305Z,18.00
2022-10-21T16:42:51.239Z,17.90
2022-10-21T16:45:21.055Z,17.80
2022-10-21T16:47:55.383Z,17.70
2022-10-21T16:50:31.219Z,17.70
2022-10-21T16:53:01.992Z,17.70
2022-10-21T16:55:29.988Z,17.60
2022-10-21T16:57:57.961Z,17.50
2022-10-21T17:00:26.087Z,17.50
2022-10-21T17:02:53.946Z,17.40
2022-10-21T17:05:22.079Z,17.40
2022-10-21T17:07:51.499Z,17.40
2022-10-21T17:10:19.818Z,17.30
2022-10-21T17:12:47.728Z,17.30
2022-10-21T17:15:17.351Z,17.20
2022-10-21T17:17:45.243Z,17.20
2022-10-21T17:20:13.184Z,17.20
2022-10-21T17:22:41.101Z,17.10
2022-10-21T17:25:12.174Z,17.10
2022-10-21T17:27:40.826Z,17.10
2022-10-21T17:30:10.169Z,17.00
2022-10-21T17:32:38.150Z,17.00
2022-10-21T17:35:06.932Z,16.90
2022-10-21T17:37:34.855Z,16.90
2022-10-21T17:40:02.718Z,16.90
2022-10-21T17:42:32.017Z,16.90
2022-10-21T17:45:02.872Z,16.80
2022-10-21T17:47:31.796Z,16.80
2022-10-21T17:50:00.107Z,16.80
2022-10-21T17:52:27.996Z,16.80
2022-10-21T17:54:55.861Z,16.70
2022-10-21T17:57:24.278Z,16.70
2022-10-21T17:59:53.898Z,16.70
2022-10-21T18:02:21.896Z,16.70
2022-10-21T18:04:49.741Z,16.70
2022-10-21T18:07:18.053Z,16.60
2022-10-21T18:09:45.916Z,16.60
2022-10-21T18:12:14.451Z,16.60
2022-10-21T18:14:42.525Z,16.60
2022-10-21T18:17:11.833Z,16.60
2022-10-21T18:19:39.975Z,16.60
2022-10-21T18:22:07.889Z,16.60
2022-10-21T18:24:35.901Z,16.50
2022-10-21T18:27:03.822Z,16.50
2022-10-21T18:29:31.712Z,16.50
2022-10-21T18:31:59.915Z,16.50
2022-10-21T18:34:29.450Z,16.50
2022-10-21T18:36:59.507Z,16.50
2022-10-21T18:39:27.604Z,16.50
2022-10-21T18:41:55.464Z,16.50
2022-10-21T18:44:23.687Z,16.40
2022-10-21T18:46:55.174Z,16.40
2022-10-21T18:49:23.908Z,16.40
2022-10-21T18:51:53.211Z,16.40
2022-10-21T18:54:21.269Z,16.40
2022-10-21T18:56:49.109Z,16.40
2022-10-21T18:59:16.979Z,16.40
2022-10-21T19:01:44.988Z,16.40
2022-10-21T19:06:42.413Z,16.40
2022-10-21T19:09:14.418Z,16.40
2022-10-21T19:11:43.770Z,16.40
2022-10-21T19:14:14.141Z,16.40
2022-10-21T19:16:42.735Z,16.40
2022-10-21T19:19:11.394Z,16.40
2022-10-21T19:21:39.435Z,16.40
2022-10-21T19:24:08.306Z,16.40
2022-10-21T19:26:40.337Z,16.40
2022-10-21T19:29:10.315Z,16.40
2022-10-21T19:31:38.776Z,16.40
2022-10-21T19:34:06.937Z,16.40
2022-10-21T19:36:35.024Z,16.40
2022-10-21T19:39:02.892Z,16.40
2022-10-21T19:41:30.966Z,16.40
2022-10-21T19:44:00.365Z,16.40
2022-10-21T19:46:31.240Z,16.40
2022-10-21T19:49:01.319Z,16.40
2022-10-21T19:51:29.587Z,16.40
2022-10-21T19:53:57.637Z,16.40
2022-10-21T19:56:29.677Z,16.30
2022-10-21T19:59:02.607Z,16.30
2022-10-21T20:01:32.171Z,16.30
2022-10-21T20:04:01.359Z,16.30
2022-10-21T20:06:31.482Z,16.30
2022-10-21T20:09:02.022Z,16.30
2022-10-21T20:11:31.022Z,16.20
2022-10-21T20:13:59.247Z,16.20
2022-10-21T20:16:30.369Z,16.20
2022-10-21T20:19:00.423Z,16.20
2022-10-21T20:21:28.754Z,16.20
2022-10-21T20:23:58.548Z,16.20
2022-10-21T20:26:28.657Z,16.20
2022-10-21T20:28:57.006Z,16.20
2022-10-21T20:31:25.030Z,16.10
2022-10-21T20:33:54.227Z,16.10
2022-10-21T20:36:24.527Z,16.10
2022-10-21T20:38:54.182Z,16.10
2022-10-21T20:41:25.189Z,16.00
2022-10-21T20:43:54.203Z,16.00
2022-10-21T20:46:23.606Z,16.00
2022-10-21T20:48:52.683Z,16.00
2022-10-21T20:51:23.823Z,16.00
2022-10-21T20:53:53.899Z,16.00
2022-10-21T20:56:22.784Z,15.90
2022-10-21T20:58:50.679Z,15.90
2022-10-21T21:01:22.144Z,15.90
2022-10-21T21:03:50.960Z,15.90
2022-10-21T21:06:19.465Z,15.90
2022-10-21T21:09:00.395Z,15.80
2022-10-21T21:11:37.360Z,15.80
2022-10-21T21:14:05.500Z,15.80
2022-10-21T21:16:33.604Z,15.70
2022-10-21T21:19:03.343Z,15.80
2022-10-21T21:21:32.543Z,15.70
2022-10-21T21:24:02.435Z,15.70
2022-10-21T21:26:32.159Z,15.70
2022-10-21T21:29:00.534Z,15.70
2022-10-21T21:31:30.008Z,15.70
2022-10-21T21:33:57.988Z,15.60
2022-10-21T21:36:26.782Z,15.60
2022-10-21T21:38:54.810Z,15.50
2022-10-21T21:41:25.702Z,15.50
2022-10-21T21:43:54.609Z,15.50
2022-10-21T21:46:24.172Z,15.50
2022-10-21T21:48:55.364Z,15.40
2022-10-21T21:51:27.107Z,15.40
2022-10-21T21:53:55.424Z,15.40
2022-10-21T21:56:25.860Z,15.40
2022-10-21T21:58:56.957Z,15.40
2022-10-21T22:01:26.355Z,15.40
2022-10-21T22:03:54.713Z,15.40
2022-10-21T22:08:58.274Z,15.30
2022-10-21T22:11:30.455Z,15.30
2022-10-21T22:13:58.967Z,15.30
2022-10-21T22:16:30.075Z,15.30
2022-10-21T22:19:00.179Z,15.30
2022-10-21T22:21:29.794Z,15.30
2022-10-21T22:23:57.651Z,15.30
2022-10-21T22:26:27.763Z,15.30
2022-10-21T22:28:56.464Z,15.30
2022-10-21T22:31:29.227Z,15.30
2022-10-21T22:33:59.365Z,15.30
2022-10-21T22:36:27.239Z,15.30
2022-10-21T22:38:55.225Z,15.30
2022-10-21T22:41:23.091Z,15.30
2022-10-21T22:43:52.333Z,15.30
2022-10-21T22:46:32.966Z,15.30
2022-10-21T22:49:01.741Z,15.30
2022-10-21T22:51:29.646Z,15.30
2022-10-21T22:53:57.686Z,15.30
2022-10-21T22:56:26.151Z,15.30
2022-10-21T22:58:55.437Z,15.30
2022-10-21T23:01:24.283Z,15.30
2022-10-21T23:03:52.845Z,15.30
2022-10-21T23:06:20.785Z,15.30
2022-10-21T23:08:48.706Z,15.30
2022-10-21T23:11:16.949Z,15.30
2022-10-21T23:13:56.245Z,15.20
2022-10-21T23:16:32.263Z,15.20
2022-10-21T23:19:00.407Z,15.20
2022-10-21T23:21:28.766Z,15.20
2022-10-21T23:23:56.847Z,15.20
2022-10-21T23:26:24.768Z,15.20
2022-10-21T23:28:52.720Z,15.20
2022-10-21T23:31:20.834Z,15.20
2022-10-21T23:33:50.080Z,15.10
2022-10-21T23:36:18.185Z,15.10
2022-10-21T23:38:46.098Z,15.10
2022-10-21T23:41:13.995Z,15.00
2022-10-21T23:43:42.517Z,15.10
2022-10-21T23:46:10.432Z,15.00
2022-10-21T23:48:38.291Z,15.00
2022-10-21T23:51:07.564Z,15.00
2022-10-21T23:53:35.536Z,15.00
2022-10-21T23:56:03.404Z,15.00
2022-10-21T23:58:32.190Z,14.90
